Time;durP1;ratioP1;P1;durP2;ratioP2;P2;SDS_P1;SDS_P2;PMS_P1;PMS_P2;Temp;Humidity;BMP_temperature;BMP_pressure;BME280_temperature;BME280_humidity;BME280_pressure;Samples;Min_cycle;Max_cycle;Signal;HPM_P1;HPM_P2
2022/03/16 00:00:27;;;;;;;74.60;35.40;;;;;;;6.32;100.00;98376.66;5074168;28;20052;-77
2022/03/16 00:02:54;;;;;;;72.25;35.22;;;;;;;6.38;100.00;98390.88;5074955;28;20041;-77
2022/03/16 00:05:21;;;;;;;76.38;33.42;;;;;;;6.40;100.00;98388.75;5074004;28;20658;-77
2022/03/16 00:07:48;;;;;;;74.82;34.17;;;;;;;6.34;100.00;98400.56;5074884;28;20049;-79
2022/03/16 00:10:15;;;;;;;80.57;35.83;;;;;;;6.31;100.00;98396.53;5074666;28;20479;-77
2022/03/16 00:12:42;;;;;;;81.28;35.60;;;;;;;6.31;100.00;98401.09;5074013;28;20064;-77
2022/03/16 00:15:09;;;;;;;77.13;34.95;;;;;;;6.46;100.00;98401.91;5074021;28;20048;-76
2022/03/16 00:17:36;;;;;;;81.32;36.08;;;;;;;6.40;100.00;98399.50;5073359;28;20075;-76
2022/03/16 00:20:03;;;;;;;81.47;34.92;;;;;;;6.37;100.00;98408.09;5073990;28;20828;-77
2022/03/16 00:22:30;;;;;;;82.90;36.88;;;;;;;6.36;100.00;98406.47;5073926;28;20280;-77
2022/03/16 00:24:56;;;;;;;79.75;35.95;;;;;;;6.41;100.00;98407.28;5072605;28;20045;-77
2022/03/16 00:27:23;;;;;;;74.47;34.97;;;;;;;6.43;100.00;98409.69;5072865;28;20070;-78
2022/03/16 00:29:50;;;;;;;79.78;35.13;;;;;;;6.38;100.00;98413.22;5073062;28;20550;-77
2022/03/16 00:32:16;;;;;;;83.45;36.08;;;;;;;6.26;100.00;98424.25;5072647;28;20455;-77
2022/03/16 00:34:43;;;;;;;83.82;36.60;;;;;;;6.25;100.00;98413.72;5074023;28;20484;-76
2022/03/16 00:37:09;;;;;;;79.35;34.17;;;;;;;6.23;100.00;98416.69;5073438;28;20096;-78
2022/03/16 00:39:36;;;;;;;75.95;34.05;;;;;;;6.24;100.00;98423.69;5073371;28;20114;-77
2022/03/16 00:42:04;;;;;;;79.75;34.22;;;;;;;6.16;100.00;98413.47;5072156;28;20458;-78
2022/03/16 00:44:34;;;;;;;85.03;34.95;;;;;;;6.22;100.00;98416.94;5072187;28;20527;-78
2022/03/16 00:47:03;;;;;;;84.20;35.25;;;;;;;6.17;100.00;98423.13;5073957;28;20506;-77
2022/03/16 00:49:30;;;;;;;82.30;36.45;;;;;;;6.31;100.00;98430.69;5092773;28;20097;-78
2022/03/16 00:51:57;;;;;;;88.85;37.72;;;;;;;6.29;100.00;98425.59;5093721;28;20083;-78
2022/03/16 00:54:25;;;;;;;85.80;36.80;;;;;;;6.27;100.00;98428.53;5094692;28;20048;-78
2022/03/16 00:56:53;;;;;;;86.00;37.60;;;;;;;6.23;100.00;98426.66;5091270;28;20538;-75
2022/03/16 00:59:19;;;;;;;83.18;37.03;;;;;;;6.22;100.00;98425.81;5091526;28;20044;-77
2022/03/16 01:01:46;;;;;;;86.03;36.50;;;;;;;6.16;100.00;98426.91;5079256;28;20385;-77
2022/03/16 01:04:13;;;;;;;93.03;37.85;;;;;;;6.13;100.00;98435.50;5073379;28;20044;-77
2022/03/16 01:06:39;;;;;;;89.22;36.33;;;;;;;6.11;100.00;98437.66;5072374;28;20098;-78
2022/03/16 01:09:06;;;;;;;88.50;38.05;;;;;;;6.03;100.00;98432.81;5071319;28;20080;-78
2022/03/16 01:11:32;;;;;;;98.13;37.58;;;;;;;5.93;100.00;98432.78;5072606;28;20044;-77
2022/03/16 01:14:00;;;;;;;81.70;36.42;;;;;;;5.97;100.00;98444.59;5072013;28;20045;-77
2022/03/16 01:16:26;;;;;;;87.45;37.05;;;;;;;5.95;100.00;98445.94;5072210;28;20333;-78
2022/03/16 01:18:53;;;;;;;92.35;36.97;;;;;;;5.84;100.00;98449.63;5072816;28;20122;-77
2022/03/16 01:21:19;;;;;;;86.70;36.33;;;;;;;5.83;100.00;98440.78;5072924;28;20091;-77
2022/03/16 01:23:46;;;;;;;95.03;37.47;;;;;;;5.79;100.00;98446.94;5072400;28;20106;-78
2022/03/16 01:26:12;;;;;;;91.85;36.35;;;;;;;5.83;100.00;98453.41;5072905;28;20140;-78
2022/03/16 01:28:39;;;;;;;89.88;36.72;;;;;;;5.88;100.00;98454.28;5073251;28;20106;-78
2022/03/16 01:31:05;;;;;;;94.78;38.20;;;;;;;5.86;100.00;98456.38;5070899;28;20072;-77
2022/03/16 01:33:32;;;;;;;98.63;38.83;;;;;;;5.82;100.00;98454.47;5072738;28;20055;-77
2022/03/16 01:35:58;;;;;;;91.90;37.22;;;;;;;5.93;100.00;98448.91;5072497;28;20048;-79
2022/03/16 01:38:25;;;;;;;90.78;36.10;;;;;;;5.96;100.00;98458.31;5072669;28;20075;-76
2022/03/16 01:40:52;;;;;;;95.15;36.75;;;;;;;5.82;100.00;98457.97;5071310;28;20420;-77
2022/03/16 01:43:19;;;;;;;87.63;36.47;;;;;;;5.75;100.00;98456.59;5071902;28;20092;-77
2022/03/16 01:45:50;;;;;;;86.47;35.35;;;;;;;5.76;100.00;98466.25;5072557;28;20319;-79
2022/03/16 01:48:18;;;;;;;90.70;36.65;;;;;;;5.71;100.00;98460.88;5073218;28;20049;-77
2022/03/16 01:50:46;;;;;;;92.65;36.53;;;;;;;5.82;100.00;98466.03;5083580;28;20123;-77
2022/03/16 01:53:13;;;;;;;94.28;35.97;;;;;;;5.86;100.00;98469.03;5077528;28;20052;-76
2022/03/16 01:55:42;;;;;;;88.53;36.10;;;;;;;5.87;100.00;98474.13;5082196;28;20074;-78
2022/03/16 01:58:10;;;;;;;85.22;34.33;;;;;;;5.84;100.00;98481.88;5074126;28;20044;-78
2022/03/16 02:00:37;;;;;;;98.45;36.90;;;;;;;5.84;100.00;98495.31;5075534;28;20135;-77
2022/03/16 02:03:07;;;;;;;87.07;36.05;;;;;;;5.77;100.00;98475.94;5071409;28;20052;-76
2022/03/16 02:05:35;;;;;;;92.60;35.90;;;;;;;5.78;100.00;98493.69;5073021;28;20048;-79
2022/03/16 02:08:04;;;;;;;93.50;35.85;;;;;;;5.78;100.00;98499.84;5082535;28;20075;-76
2022/03/16 02:10:32;;;;;;;86.80;36.22;;;;;;;5.73;100.00;98499.06;5084510;28;20045;-77
2022/03/16 02:12:58;;;;;;;91.13;36.10;;;;;;;5.67;100.00;98500.91;5077442;28;20437;-77
2022/03/16 02:15:25;;;;;;;93.30;36.88;;;;;;;5.68;100.00;98507.09;5070577;28;20631;-77
2022/03/16 02:17:54;;;;;;;96.78;37.28;;;;;;;5.71;100.00;98509.22;5071831;28;20049;-77
2022/03/16 02:20:22;;;;;;;94.68;37.05;;;;;;;5.68;100.00;98515.94;5071051;28;20048;-75
2022/03/16 02:22:59;;;;;;;97.40;36.97;;;;;;;5.71;100.00;98514.59;5071303;28;20053;-78
2022/03/16 02:25:28;;;;;;;101.05;38.78;;;;;;;5.71;100.00;98507.34;5071607;28;20463;-79
2022/03/16 02:27:57;;;;;;;100.97;39.30;;;;;;;5.71;100.00;98515.41;5071301;28;20049;-77
2022/03/16 02:30:26;;;;;;;105.78;39.83;;;;;;;5.63;100.00;98516.72;5070973;28;20082;-76
2022/03/16 02:32:53;;;;;;;105.93;39.20;;;;;;;5.66;100.00;98526.13;5072102;28;20056;-76
2022/03/16 02:35:21;;;;;;;98.82;39.83;;;;;;;5.68;100.00;98527.50;5070343;28;20097;-76
2022/03/16 02:37:48;;;;;;;100.75;40.03;;;;;;;5.68;100.00;98528.56;5070740;28;20458;-77
2022/03/16 02:40:23;;;;;;;106.50;39.17;;;;;;;5.65;100.00;98532.59;5071260;28;20072;-77
2022/03/16 02:42:49;;;;;;;106.20;39.28;;;;;;;5.70;100.00;98546.03;5071512;28;20273;-77
2022/03/16 02:45:17;;;;;;;98.05;38.20;;;;;;;5.77;100.00;98551.16;5070604;28;20084;-77
2022/03/16 02:47:44;;;;;;;94.68;38.42;;;;;;;5.72;100.00;98545.78;5075686;28;20070;-75
2022/03/16 02:50:16;;;;;;;114.22;40.42;;;;;;;5.72;100.00;98554.66;5071454;28;20103;-77
2022/03/16 02:52:43;;;;;;;110.22;40.45;;;;;;;5.71;100.00;98553.03;5071030;28;20048;-78
2022/03/16 02:55:30;;;;;;;104.93;39.10;;;;;;;5.74;100.00;98563.25;5070379;28;20049;-77
2022/03/16 02:57:56;;;;;;;108.10;40.90;;;;;;;5.75;100.00;98562.19;5069413;28;20049;-78
2022/03/16 03:00:26;;;;;;;114.38;41.20;;;;;;;5.70;100.00;98572.09;5070634;28;20070;-77
2022/03/16 03:02:54;;;;;;;109.22;41.17;;;;;;;5.75;100.00;98574.81;5069891;28;20048;-77
2022/03/16 03:05:22;;;;;;;118.22;41.70;;;;;;;5.68;100.00;98581.22;5070487;28;20641;-76
2022/03/16 03:07:48;;;;;;;119.95;43.58;;;;;;;5.67;100.00;98573.44;5070595;28;20143;-76
2022/03/16 03:10:15;;;;;;;124.10;43.40;;;;;;;5.66;100.00;98590.59;5069667;28;20057;-78
2022/03/16 03:12:42;;;;;;;111.78;42.05;;;;;;;5.72;100.00;98592.25;5070892;28;20508;-76
2022/03/16 03:15:11;;;;;;;119.25;42.05;;;;;;;5.64;100.00;98590.06;5069878;28;20049;-77
2022/03/16 03:17:39;;;;;;;123.50;42.90;;;;;;;5.64;100.00;98592.75;5068826;28;20090;-77
2022/03/16 03:20:06;;;;;;;126.85;44.28;;;;;;;5.59;100.00;98601.59;5071064;28;20048;-77
2022/03/16 03:22:33;;;;;;;126.72;44.92;;;;;;;5.61;100.00;98591.38;5086332;28;20087;-77
2022/03/16 03:25:00;;;;;;;127.90;44.97;;;;;;;5.55;100.00;98602.34;5090798;28;20471;-77
2022/03/16 03:27:26;;;;;;;122.20;45.53;;;;;;;5.58;100.00;98599.97;5089758;28;20087;-77
2022/03/16 03:29:53;;;;;;;124.53;44.20;;;;;;;5.58;100.00;98599.97;5090803;28;20048;-77
2022/03/16 03:32:20;;;;;;;133.15;45.53;;;;;;;5.62;100.00;98609.13;5090948;28;20105;-77
2022/03/16 03:34:50;;;;;;;132.82;46.75;;;;;;;5.70;100.00;98605.16;5091386;28;20090;-78
2022/03/16 03:37:17;;;;;;;138.60;47.42;;;;;;;5.70;100.00;98621.28;5091058;28;20127;-78
2022/03/16 03:39:45;;;;;;;142.77;46.55;;;;;;;5.68;100.00;98602.69;5090825;28;20127;-78
2022/03/16 03:42:12;;;;;;;153.40;48.28;;;;;;;5.70;100.00;98610.53;5090359;28;20083;-78
2022/03/16 03:44:38;;;;;;;146.02;46.55;;;;;;;5.65;100.00;98605.13;5090162;28;20248;-78
2022/03/16 03:47:06;;;;;;;150.65;49.08;;;;;;;5.63;100.00;98618.78;5091419;28;20097;-77
2022/03/16 03:49:38;;;;;;;142.68;47.92;;;;;;;5.68;100.00;98618.00;5082370;28;20044;-77
2022/03/16 03:52:05;;;;;;;134.00;47.15;;;;;;;5.65;100.00;98613.97;5082805;28;20571;-78
2022/03/16 03:54:32;;;;;;;156.77;49.17;;;;;;;5.62;100.00;98630.63;5090713;28;20089;-77
2022/03/16 03:56:59;;;;;;;145.23;47.83;;;;;;;5.64;100.00;98624.97;5089875;28;20106;-75
2022/03/16 03:59:26;;;;;;;144.43;48.35;;;;;;;5.59;100.00;98622.25;5089613;28;20579;-77
2022/03/16 04:01:53;;;;;;;139.25;47.15;;;;;;;5.58;100.00;98634.06;5091268;28;20101;-77
2022/03/16 04:04:19;;;;;;;149.73;49.83;;;;;;;5.42;100.00;98630.44;5091452;28;20105;-78
2022/03/16 04:06:46;;;;;;;150.57;49.78;;;;;;;5.53;100.00;98634.03;5092810;28;20044;-76
2022/03/16 04:09:12;;;;;;;151.50;48.88;;;;;;;5.61;100.00;98649.66;5093181;28;20044;-77
2022/03/16 04:11:40;;;;;;;156.82;48.80;;;;;;;5.54;100.00;98641.03;5089267;28;20367;-76
2022/03/16 04:14:06;;;;;;;152.70;51.05;;;;;;;5.60;100.00;98642.69;5090514;28;20298;-77
2022/03/16 04:16:33;;;;;;;158.00;50.30;;;;;;;5.62;100.00;98649.44;5089041;28;20071;-78
2022/03/16 04:18:59;;;;;;;161.63;49.50;;;;;;;5.62;100.00;98646.72;5090480;28;20052;-77
2022/03/16 04:21:26;;;;;;;159.43;50.28;;;;;;;5.69;100.00;98654.56;5091760;28;20071;-77
2022/03/16 04:23:54;;;;;;;158.05;49.72;;;;;;;5.66;100.00;98649.69;5092356;28;20480;-77
2022/03/16 04:26:20;;;;;;;153.93;50.17;;;;;;;5.55;100.00;98648.81;5091727;28;20052;-78
2022/03/16 04:28:47;;;;;;;157.77;49.85;;;;;;;5.64;100.00;98662.59;5093422;28;20048;-77
2022/03/16 04:31:14;;;;;;;168.63;50.45;;;;;;;5.62;100.00;98656.66;5091025;28;20101;-77
2022/03/16 04:33:41;;;;;;;134.07;46.20;;;;;;;5.66;100.00;98660.44;5090941;28;20126;-76
2022/03/16 04:36:07;;;;;;;140.27;46.97;;;;;;;5.64;100.00;98666.09;5090526;28;20105;-77
2022/03/16 04:38:34;;;;;;;145.05;47.53;;;;;;;5.64;100.00;98660.72;5089711;28;20105;-77
2022/03/16 04:41:02;;;;;;;123.32;43.88;;;;;;;5.60;100.00;98656.91;5084637;28;20083;-77
2022/03/16 04:43:28;;;;;;;143.77;47.33;;;;;;;5.68;100.00;98673.63;5078772;28;20702;-76
2022/03/16 04:45:56;;;;;;;126.72;46.15;;;;;;;5.74;100.00;98667.22;5080716;28;20047;-78
2022/03/16 04:48:23;;;;;;;138.50;46.88;;;;;;;5.66;100.00;98669.31;5092550;28;20048;-77
2022/03/16 04:50:49;;;;;;;142.73;46.90;;;;;;;5.61;100.00;98679.22;5104018;28;20052;-76
2022/03/16 04:53:16;;;;;;;134.32;47.75;;;;;;;5.51;100.00;98677.25;5107531;28;20044;-78
2022/03/16 04:55:42;;;;;;;140.32;47.42;;;;;;;5.55;100.00;98682.91;5102470;28;20055;-77
2022/03/16 04:58:09;;;;;;;130.70;45.28;;;;;;;5.70;100.00;98687.59;5093292;28;20044;-76
2022/03/16 05:00:37;;;;;;;139.45;46.35;;;;;;;5.58;100.00;98680.53;5093001;28;20078;-77
2022/03/16 05:03:05;;;;;;;140.63;47.38;;;;;;;5.66;100.00;98696.19;5093190;28;20048;-78
2022/03/16 05:05:32;;;;;;;138.15;48.17;;;;;;;5.67;100.00;98691.63;5093636;28;20044;-78
2022/03/16 05:07:59;;;;;;;150.23;48.78;;;;;;;5.65;100.00;98709.88;5093964;28;20311;-77
2022/03/16 05:10:25;;;;;;;148.13;49.53;;;;;;;5.65;100.00;98696.44;5092857;28;20044;-76
2022/03/16 05:12:52;;;;;;;148.90;49.70;;;;;;;5.70;100.00;98692.97;5092906;28;20070;-77
2022/03/16 05:15:20;;;;;;;144.93;48.63;;;;;;;5.72;100.00;98693.53;5092099;28;20495;-77
2022/03/16 05:17:47;;;;;;;142.52;48.58;;;;;;;5.66;100.00;98695.38;5092389;28;20078;-77
2022/03/16 05:20:15;;;;;;;163.35;51.08;;;;;;;5.60;100.00;98688.34;5087219;28;20045;-78
2022/03/16 05:22:43;;;;;;;163.82;50.70;;;;;;;5.60;100.00;98715.22;5073029;28;20519;-78
2022/03/16 05:25:12;;;;;;;165.80;50.38;;;;;;;5.61;100.00;98706.06;5072544;28;20083;-76
2022/03/16 05:27:39;;;;;;;163.90;51.05;;;;;;;5.58;100.00;98717.31;5074100;28;20106;-78
2022/03/16 05:30:07;;;;;;;157.43;49.63;;;;;;;5.60;100.00;98715.22;5074477;28;20496;-77
2022/03/16 05:32:34;;;;;;;156.40;48.63;;;;;;;5.75;100.00;98717.19;5073862;28;20049;-77
2022/03/16 05:35:02;;;;;;;158.70;50.67;;;;;;;5.87;100.00;98707.91;5073975;28;20113;-76
2022/03/16 05:37:28;;;;;;;143.27;48.95;;;;;;;5.79;100.00;98704.84;5089678;28;20052;-76
2022/03/16 05:39:55;;;;;;;142.45;47.83;;;;;;;5.81;100.00;98708.91;5089105;28;20082;-77
2022/03/16 05:42:21;;;;;;;136.82;47.50;;;;;;;5.73;100.00;98709.38;5082141;28;20048;-78
2022/03/16 05:44:48;;;;;;;128.52;46.80;;;;;;;5.72;100.00;98717.72;5083852;28;20052;-77
2022/03/16 05:47:14;;;;;;;140.95;47.35;;;;;;;5.81;100.00;98721.56;5093514;28;20055;-77
2022/03/16 05:49:41;;;;;;;132.70;44.92;;;;;;;5.90;100.00;98728.91;5093890;28;20539;-77
2022/03/16 05:52:07;;;;;;;132.73;46.20;;;;;;;5.93;100.00;98717.66;5092423;28;20094;-77
2022/03/16 05:54:34;;;;;;;120.45;43.30;;;;;;;5.99;100.00;98727.34;5092502;28;20561;-77
2022/03/16 05:57:00;;;;;;;122.47;43.70;;;;;;;5.96;100.00;98725.16;5092648;28;20082;-78
2022/03/16 05:59:32;;;;;;;136.52;47.78;;;;;;;5.83;100.00;98736.34;5091450;28;20415;-75
2022/03/16 06:01:59;;;;;;;132.25;46.95;;;;;;;5.98;100.00;98733.00;5089568;28;20155;-77
2022/03/16 06:04:25;;;;;;;137.02;46.15;;;;;;;6.13;100.00;98731.22;5089755;28;20109;-77
2022/03/16 06:06:52;;;;;;;132.48;48.42;;;;;;;6.03;100.00;98730.34;5081683;28;20044;-78
2022/03/16 06:09:19;;;;;;;120.28;45.90;;;;;;;6.09;100.00;98738.16;5071734;28;20105;-78
2022/03/16 06:11:46;;;;;;;125.20;46.95;;;;;;;6.05;100.00;98734.38;5072024;28;20052;-77
2022/03/16 06:14:12;;;;;;;139.30;47.53;;;;;;;5.96;100.00;98740.50;5071731;28;20132;-77
2022/03/16 06:16:38;;;;;;;132.52;48.90;;;;;;;6.10;100.00;98747.03;5071802;28;20110;-77
2022/03/16 06:19:05;;;;;;;132.43;45.53;;;;;;;6.03;100.00;98757.22;5072075;28;20086;-77
2022/03/16 06:21:32;;;;;;;125.70;46.55;;;;;;;6.11;100.00;98757.56;5073002;28;20048;-77
2022/03/16 06:23:58;;;;;;;131.30;46.88;;;;;;;6.11;100.00;98756.75;5079961;28;20127;-74
2022/03/16 06:26:27;;;;;;;125.35;44.70;;;;;;;6.25;100.00;98757.88;5071003;28;20048;-77
2022/03/16 06:28:53;;;;;;;126.85;45.03;;;;;;;6.37;100.00;98747.78;5072520;28;20095;-77
2022/03/16 06:31:20;;;;;;;113.45;43.35;;;;;;;6.35;100.00;98757.16;5085300;28;20087;-77
2022/03/16 06:33:46;;;;;;;115.05;43.22;;;;;;;6.51;100.00;98750.78;5093827;28;20704;-78
2022/03/16 06:36:13;;;;;;;107.68;41.35;;;;;;;6.33;100.00;98743.16;5093109;28;20044;-78
2022/03/16 06:38:40;;;;;;;105.10;41.05;;;;;;;6.51;100.00;98754.28;5092890;28;20140;-77
2022/03/16 06:41:15;;;;;;;106.78;42.28;;;;;;;6.59;100.00;98761.88;5076722;28;20056;-78
2022/03/16 06:43:41;;;;;;;108.25;40.17;;;;;;;6.85;100.00;98760.09;5080882;28;20075;-74
2022/03/16 06:46:08;;;;;;;96.60;39.25;;;;;;;6.93;100.00;98748.00;5082252;28;20061;-77
2022/03/16 06:48:36;;;;;;;90.22;37.65;;;;;;;7.03;100.00;98767.72;5086745;28;20055;-76
2022/03/16 06:51:02;;;;;;;99.65;37.30;;;;;;;6.25;100.00;98774.84;5091906;28;20553;-77
2022/03/16 06:53:29;;;;;;;99.60;39.25;;;;;;;6.59;100.00;98763.75;5082048;28;20056;-77
2022/03/16 06:55:56;;;;;;;101.47;39.75;;;;;;;6.51;100.00;98769.63;5070888;28;20045;-78
2022/03/16 06:58:22;;;;;;;108.05;40.67;;;;;;;6.44;100.00;98766.34;5072232;28;20052;-78
2022/03/16 07:00:49;;;;;;;94.57;37.47;;;;;;;6.75;100.00;98768.94;5077496;28;20063;-76
2022/03/16 07:03:15;;;;;;;102.35;39.50;;;;;;;6.78;100.00;98773.81;5078442;28;20082;-77
2022/03/16 07:05:42;;;;;;;89.57;36.97;;;;;;;6.66;100.00;98777.75;5069518;28;20041;-76
2022/03/16 07:08:12;;;;;;;95.20;37.72;;;;;;;6.55;100.00;98778.81;5076365;28;20048;-76
2022/03/16 07:10:43;;;;;;;86.65;35.15;;;;;;;6.92;100.00;98790.28;5087546;28;20099;-77
2022/03/16 07:13:11;;;;;;;87.93;36.63;;;;;;;6.69;100.00;98798.78;5072148;28;20044;-79
2022/03/16 07:15:43;;;;;;;93.00;35.17;;;;;;;6.82;100.00;98790.22;5075257;28;20068;-79
2022/03/16 07:18:10;;;;;;;88.70;36.58;;;;;;;6.87;100.00;98801.00;5071202;28;20411;-79
2022/03/16 07:20:38;;;;;;;82.53;36.47;;;;;;;6.59;100.00;98785.25;5069858;28;20083;-77
2022/03/16 07:23:04;;;;;;;92.95;37.90;;;;;;;6.97;100.00;98801.06;5074095;28;20056;-78
2022/03/16 07:25:35;;;;;;;93.65;39.15;;;;;;;7.00;100.00;98803.22;5079022;28;20435;-78
2022/03/16 07:28:03;;;;;;;91.85;37.65;;;;;;;6.82;100.00;98804.50;5079167;28;20055;-78
2022/03/16 07:30:29;;;;;;;93.85;39.55;;;;;;;6.71;100.00;98797.44;5087155;28;20081;-79
2022/03/16 07:32:56;;;;;;;89.18;37.70;;;;;;;6.82;100.00;98799.13;5089769;28;20083;-79
2022/03/16 07:35:26;;;;;;;90.07;37.10;;;;;;;7.06;100.00;98807.56;5080942;28;20049;-78
2022/03/16 07:37:55;;;;;;;90.18;37.20;;;;;;;6.65;100.00;98811.13;5082388;28;20071;-80
2022/03/16 07:40:22;;;;;;;91.57;36.40;;;;;;;6.23;100.00;98814.63;5084440;28;20066;-75
2022/03/16 07:42:50;;;;;;;86.75;36.80;;;;;;;6.49;100.00;98828.25;5076036;28;20106;-77
2022/03/16 07:45:18;;;;;;;85.97;36.70;;;;;;;7.02;100.00;98825.31;5074623;28;20080;-79
2022/03/16 07:47:46;;;;;;;87.22;36.65;;;;;;;7.28;100.00;98824.34;5080594;28;20075;-77
2022/03/16 07:50:13;;;;;;;76.22;34.55;;;;;;;7.37;100.00;98821.94;5068636;28;20087;-77
2022/03/16 07:52:40;;;;;;;79.47;34.00;;;;;;;7.63;100.00;98825.53;5067862;28;20092;-79
2022/03/16 07:55:07;;;;;;;72.90;34.00;;;;;;;7.14;100.00;98825.09;5068329;28;20053;-78
2022/03/16 07:57:35;;;;;;;77.30;35.38;;;;;;;7.63;100.00;98820.13;5069783;28;20052;-77
2022/03/16 08:00:07;;;;;;;72.72;33.60;;;;;;;7.91;100.00;98827.72;5072078;28;20127;-77
2022/03/16 08:02:34;;;;;;;70.13;32.55;;;;;;;8.47;100.00;98821.25;5068146;28;20504;-77
2022/03/16 08:05:01;;;;;;;63.92;31.17;;;;;;;8.33;100.00;98828.31;5069104;28;20045;-78
2022/03/16 08:07:29;;;;;;;68.95;31.70;;;;;;;8.33;100.00;98831.00;5075822;28;20097;-77
2022/03/16 08:09:57;;;;;;;63.40;29.92;;;;;;;7.57;100.00;98831.97;5072637;28;20079;-78
2022/03/16 08:12:24;;;;;;;58.20;29.08;;;;;;;7.86;100.00;98839.31;5068252;28;20273;-78
2022/03/16 08:14:51;;;;;;;60.75;28.63;;;;;;;8.08;100.00;98836.34;5069527;28;20568;-78
2022/03/16 08:17:18;;;;;;;54.78;27.50;;;;;;;8.11;100.00;98841.22;5088514;28;20052;-78
2022/03/16 08:19:45;;;;;;;58.13;28.30;;;;;;;8.41;100.00;98841.25;5090670;28;20127;-78
2022/03/16 08:22:11;;;;;;;55.92;27.85;;;;;;;7.97;100.00;98848.22;5078079;28;20064;-80
2022/03/16 08:24:38;;;;;;;57.75;28.73;;;;;;;7.85;100.00;98842.25;5076059;28;20091;-77
2022/03/16 08:27:17;;;;;;;58.25;27.65;;;;;;;8.37;100.00;98836.66;5071533;28;20052;-79
2022/03/16 08:29:44;;;;;;;56.10;28.65;;;;;;;8.26;100.00;98846.59;5075525;28;20454;-77
2022/03/16 08:32:10;;;;;;;58.42;29.48;;;;;;;8.34;100.00;98840.72;5092124;28;20051;-78
2022/03/16 08:34:40;;;;;;;52.47;25.75;;;;;;;8.39;100.00;98840.69;5085346;28;20125;-77
2022/03/16 08:37:06;;;;;;;54.53;27.35;;;;;;;8.96;100.00;98836.81;5080171;28;20078;-75
2022/03/16 08:39:41;;;;;;;51.10;27.48;;;;;;;9.39;100.00;98839.63;5075924;28;20051;-77
2022/03/16 08:42:11;;;;;;;47.17;25.40;;;;;;;9.28;100.00;98827.25;5075870;28;20052;-77
2022/03/16 08:44:37;;;;;;;51.03;26.83;;;;;;;9.57;100.00;98842.78;5091025;28;20044;-76
2022/03/16 08:47:04;;;;;;;50.88;26.05;;;;;;;9.61;100.00;98833.84;5083167;28;20083;-78
2022/03/16 08:49:31;;;;;;;45.17;24.40;;;;;;;10.01;100.00;98828.16;5094796;28;20052;-78
2022/03/16 08:51:58;;;;;;;46.97;24.63;;;;;;;9.89;100.00;98833.13;5094021;28;20496;-78
2022/03/16 08:54:25;;;;;;;42.83;24.05;;;;;;;9.86;100.00;98832.88;5092679;28;20443;-78
2022/03/16 08:56:53;;;;;;;45.85;24.42;;;;;;;9.59;100.00;98827.09;5091582;28;20341;-76
2022/03/16 08:59:20;;;;;;;49.35;25.35;;;;;;;9.82;100.00;98823.72;5090366;28;20134;-77
2022/03/16 09:01:47;;;;;;;50.60;24.40;;;;;;;8.89;100.00;98831.72;5091743;28;20055;-78
2022/03/16 09:04:14;;;;;;;46.95;24.08;;;;;;;9.98;100.00;98831.44;5080298;28;20306;-78
2022/03/16 09:06:42;;;;;;;48.97;23.73;;;;;;;9.92;100.00;98829.88;5099968;28;20048;-78
2022/03/16 09:09:08;;;;;;;46.25;23.15;;;;;;;9.88;100.00;98825.31;5085506;28;20066;-77
2022/03/16 09:11:35;;;;;;;42.47;22.45;;;;;;;9.74;100.00;98835.13;5071487;28;20048;-76
2022/03/16 09:14:05;;;;;;;45.45;23.13;;;;;;;8.75;100.00;98836.06;5070577;28;20052;-79
2022/03/16 09:16:33;;;;;;;46.17;24.83;;;;;;;9.20;100.00;98835.13;5071563;28;20129;-78
2022/03/16 09:19:02;;;;;;;43.55;23.25;;;;;;;9.19;100.00;98841.59;5071516;28;20125;-78
2022/03/16 09:21:29;;;;;;;46.00;23.40;;;;;;;9.34;100.00;98847.75;5074788;28;20048;-78
2022/03/16 09:23:55;;;;;;;46.30;24.02;;;;;;;9.55;100.00;98840.34;5075473;28;20075;-78
2022/03/16 09:26:22;;;;;;;46.58;23.85;;;;;;;9.88;100.00;98841.53;5069681;28;20041;-78
2022/03/16 09:28:49;;;;;;;41.78;21.83;;;;;;;9.77;100.00;98826.44;5083391;28;20109;-79
2022/03/16 09:31:16;;;;;;;45.60;23.45;;;;;;;10.43;100.00;98834.91;5090982;28;20052;-78
2022/03/16 09:33:43;;;;;;;42.42;22.40;;;;;;;10.59;100.00;98822.84;5077450;28;20079;-78
2022/03/16 09:36:10;;;;;;;42.03;22.08;;;;;;;10.71;100.00;98834.06;5084767;28;20084;-78
2022/03/16 09:38:37;;;;;;;38.78;22.38;;;;;;;9.56;100.00;98841.97;5071678;28;20148;-78
2022/03/16 09:41:04;;;;;;;39.75;21.92;;;;;;;9.82;100.00;98835.34;5070559;28;20410;-78
2022/03/16 09:43:33;;;;;;;39.70;21.48;;;;;;;9.94;100.00;98827.69;5087304;28;20052;-78
2022/03/16 09:46:12;;;;;;;42.38;21.60;;;;;;;9.80;100.00;98832.13;5090773;28;20107;-77
2022/03/16 09:48:39;;;;;;;39.67;22.65;;;;;;;10.34;100.00;98839.31;5083944;28;20114;-78
2022/03/16 09:51:11;;;;;;;40.28;20.95;;;;;;;10.38;100.00;98833.03;5080988;28;20570;-77
2022/03/16 09:53:38;;;;;;;37.13;20.67;;;;;;;9.98;100.00;98833.34;5086984;28;20514;-78
2022/03/16 09:56:05;;;;;;;39.85;20.73;;;;;;;10.12;100.00;98823.50;5091014;28;20051;-78
2022/03/16 09:58:32;;;;;;;41.33;20.25;;;;;;;10.44;100.00;98820.28;5090144;28;20131;-79
2022/03/16 10:00:58;;;;;;;40.25;20.27;;;;;;;9.73;100.00;98837.00;5091424;28;20415;-78
2022/03/16 10:03:28;;;;;;;35.42;20.02;;;;;;;10.22;100.00;98830.75;5091262;28;20079;-78
2022/03/16 10:05:56;;;;;;;39.47;19.33;;;;;;;10.70;100.00;98834.38;5086287;28;20509;-76
2022/03/16 10:08:35;;;;;;;37.28;18.63;;;;;;;10.52;100.00;98833.19;5083993;28;20518;-78
2022/03/16 10:13:59;;;;;;;33.15;18.65;;;;;;;10.94;100.00;98829.81;5090501;28;20048;-77
2022/03/16 10:17:43;;;;;;;36.97;19.05;;;;;;;12.29;100.00;98824.44;5088024;28;20124;-78
2022/03/16 10:19:12;;;;;;;37.20;19.20;;;;;;;13.22;100.00;98833.34;5090713;28;20079;-78
2022/03/16 10:21:39;;;;;;;36.00;18.48;;;;;;;13.22;100.00;98823.28;5092089;28;20048;-80
2022/03/16 10:24:06;;;;;;;28.92;17.40;;;;;;;13.18;100.00;98826.91;5089201;28;20091;-79
2022/03/16 10:26:32;;;;;;;35.75;17.73;;;;;;;14.13;100.00;98824.00;5095583;28;20078;-79
2022/03/16 10:29:03;;;;;;;34.03;16.48;;;;;;;13.94;100.00;98809.75;5093427;28;20048;-78
2022/03/16 10:31:30;;;;;;;26.77;14.68;;;;;;;15.89;100.00;98821.13;5092897;28;20045;-78
2022/03/16 10:33:58;;;;;;;24.65;13.90;;;;;;;-141.50;100.00;63355.56;5092727;28;20490;-78
2022/03/16 10:36:26;;;;;;;25.00;13.60;;;;;;;-141.50;100.00;63355.56;5090669;28;20044;-79
2022/03/16 10:38:58;;;;;;;25.83;14.52;;;;;;;15.89;100.00;98821.13;5086411;28;20058;-78
2022/03/16 10:47:20;;;;;;;24.10;14.40;;;;;;;19.69;58.98;98818.75;5074542;28;20416;-79
2022/03/16 10:50:01;;;;;;;18.92;11.02;;;;;;;18.97;52.58;98813.25;5068524;28;20138;-77
2022/03/16 10:52:32;;;;;;;19.92;11.30;;;;;;;18.63;53.64;98820.69;5070071;28;20470;-78
2022/03/16 10:55:02;;;;;;;17.33;10.48;;;;;;;19.80;51.30;98821.84;5088386;28;20052;-79
2022/03/16 10:57:31;;;;;;;17.90;10.60;;;;;;;16.96;57.46;98817.31;5089019;28;20151;-77
2022/03/16 10:59:58;;;;;;;20.25;11.07;;;;;;;20.16;47.90;98810.75;5089998;28;20079;-77
2022/03/16 11:02:33;;;;;;;16.52;10.50;;;;;;;20.03;51.36;98816.66;5091033;28;20068;-78
2022/03/16 11:05:00;;;;;;;15.02;9.05;;;;;;;-141.50;100.00;63355.56;5091404;28;20087;-79
2022/03/16 11:07:27;;;;;;;14.20;8.52;;;;;;;-141.50;100.00;63355.56;5090435;28;20101;-79
2022/03/16 11:09:54;;;;;;;18.80;10.25;;;;;;;20.03;51.36;98816.66;5092207;28;20052;-78
2022/03/16 11:15:09;;;;;;;11.38;7.65;;;;;;;22.73;41.70;98790.63;5082358;28;20078;-77
2022/03/16 11:17:37;;;;;;;12.93;7.18;;;;;;;20.67;44.36;98802.78;5084058;28;20048;-77
2022/03/16 11:20:07;;;;;;;11.82;7.65;;;;;;;-141.50;100.00;63355.56;5077495;28;20135;-77
2022/03/16 11:24:15;;;;;;;13.45;7.65;;;;;;;-141.50;100.00;63355.56;5077094;28;20097;-76
2022/03/16 11:25:39;;;;;;;13.00;8.20;;;;;;;-141.50;100.00;63355.56;5079073;28;20049;-77